createdAt,value
2023-04-10T00:00:05.223Z,10.45
2023-04-10T00:02:08.857Z,10.43
2023-04-10T00:04:14.601Z,10.40
2023-04-10T00:06:19.762Z,10.36
2023-04-10T00:08:25.169Z,10.32
2023-04-10T00:10:30.711Z,10.29
2023-04-10T00:12:34.480Z,10.24
2023-04-10T00:14:39.861Z,10.20
2023-04-10T00:16:43.233Z,10.16
2023-04-10T00:18:46.573Z,10.14
2023-04-10T00:20:49.975Z,10.11
2023-04-10T00:22:53.416Z,10.09
2023-04-10T00:24:56.780Z,10.07
2023-04-10T00:27:00.321Z,10.04
2023-04-10T00:29:04.010Z,10.03
2023-04-10T00:31:09.237Z,10.00
2023-04-10T00:33:12.821Z,10.00
2023-04-10T00:35:17.047Z,9.97
2023-04-10T00:37:20.289Z,9.95
2023-04-10T00:39:24.291Z,9.94
2023-04-10T00:41:29.711Z,9.92
2023-04-10T00:43:33.096Z,9.90
2023-04-10T00:45:36.539Z,9.89
2023-04-10T00:47:41.898Z,9.87
2023-04-10T00:49:45.524Z,9.87
2023-04-10T00:51:48.983Z,9.83
2023-04-10T00:53:53.311Z,9.83
2023-04-10T00:55:58.233Z,9.82
2023-04-10T00:58:01.657Z,9.82
2023-04-10T01:00:06.025Z,9.81
2023-04-10T01:02:10.446Z,9.78
2023-04-10T01:04:16.408Z,9.76
2023-04-10T01:06:28.289Z,9.75
2023-04-10T01:08:40.720Z,9.76
2023-04-10T01:10:49.885Z,9.77
2023-04-10T01:13:01.086Z,9.79
2023-04-10T01:15:08.118Z,9.81
2023-04-10T01:17:18.796Z,9.83
2023-04-10T01:19:34.089Z,9.86
2023-04-10T01:21:39.277Z,9.87
2023-04-10T01:24:04.880Z,9.87
2023-04-10T01:26:12.341Z,9.89
2023-04-10T01:28:45.807Z,9.91
2023-04-10T01:30:55.237Z,9.94
2023-04-10T01:33:02.000Z,9.93
2023-04-10T01:35:09.306Z,9.95
2023-04-10T01:37:17.860Z,9.97
2023-04-10T01:39:23.192Z,9.95
2023-04-10T01:41:27.853Z,9.94
2023-04-10T01:43:36.176Z,9.94
2023-04-10T01:45:41.849Z,9.92
2023-04-10T01:47:47.346Z,9.90
2023-04-10T01:49:51.854Z,9.90
2023-04-10T01:51:58.482Z,9.89
2023-04-10T01:54:06.992Z,9.89
2023-04-10T01:56:11.530Z,9.91
2023-04-10T01:58:21.732Z,9.93
2023-04-10T02:00:25.342Z,9.92
2023-04-10T02:02:32.495Z,9.92
2023-04-10T02:04:37.413Z,9.91
2023-04-10T02:06:51.490Z,9.90
2023-04-10T02:08:58.789Z,9.88
2023-04-10T02:11:09.098Z,9.87
2023-04-10T02:13:15.903Z,9.87
2023-04-10T02:15:21.142Z,9.87
2023-04-10T02:17:30.167Z,9.87
2023-04-10T02:19:35.856Z,9.86
2023-04-10T02:21:42.274Z,9.86
2023-04-10T02:23:45.827Z,9.88
2023-04-10T02:25:49.203Z,9.86
2023-04-10T02:27:52.708Z,9.87
2023-04-10T02:29:56.867Z,9.87
2023-04-10T02:32:02.137Z,9.86
2023-04-10T02:34:05.956Z,9.87
2023-04-10T02:36:10.417Z,9.87
2023-04-10T02:38:17.271Z,9.88
2023-04-10T02:40:21.662Z,9.87
2023-04-10T02:42:51.069Z,9.88
2023-04-10T02:44:54.371Z,9.89
2023-04-10T02:46:57.863Z,9.89
2023-04-10T02:49:01.731Z,9.90
2023-04-10T02:51:06.119Z,9.90
2023-04-10T02:53:09.375Z,9.91
2023-04-10T02:55:14.436Z,9.89
2023-04-10T02:57:18.453Z,9.88
2023-04-10T02:59:22.114Z,9.89
2023-04-10T03:01:25.796Z,9.87
2023-04-10T03:03:29.280Z,9.82
2023-04-10T03:05:33.304Z,9.81
2023-04-10T03:07:36.720Z,9.81
2023-04-10T03:09:40.162Z,9.81
2023-04-10T03:11:44.911Z,9.81
2023-04-10T03:13:49.109Z,9.83
2023-04-10T03:15:52.724Z,9.83
2023-04-10T03:17:56.792Z,9.86
2023-04-10T03:20:00.451Z,9.86
2023-04-10T03:22:04.103Z,9.83
2023-04-10T03:24:07.644Z,9.82
2023-04-10T03:26:11.188Z,9.78
2023-04-10T03:28:16.471Z,9.76
2023-04-10T03:30:19.767Z,9.73
2023-04-10T03:32:24.698Z,9.72
2023-04-10T03:34:28.280Z,9.70
2023-04-10T03:36:32.346Z,9.70
2023-04-10T03:38:35.956Z,9.68
2023-04-10T03:40:40.266Z,9.65
2023-04-10T03:42:46.641Z,9.60
2023-04-10T03:44:51.815Z,9.58
2023-04-10T03:46:56.469Z,9.55
2023-04-10T03:48:59.950Z,9.54
2023-04-10T03:51:04.386Z,9.48
2023-04-10T03:53:07.821Z,9.43
2023-04-10T03:55:11.469Z,9.39
2023-04-10T03:57:14.918Z,9.36
2023-04-10T03:59:18.167Z,9.32
2023-04-10T04:01:24.253Z,9.29
2023-04-10T04:03:42.411Z,9.26
2023-04-10T04:06:04.268Z,9.23
2023-04-10T04:08:14.097Z,9.21
2023-04-10T04:10:36.098Z,9.19
2023-04-10T04:12:52.829Z,9.15
2023-04-10T04:15:02.557Z,9.11
2023-04-10T04:17:25.131Z,9.07
2023-04-10T04:19:40.756Z,9.04
2023-04-10T04:21:54.687Z,9.02
2023-04-10T04:24:17.295Z,8.98
2023-04-10T04:26:36.181Z,8.94
2023-04-10T04:28:49.933Z,8.91
2023-04-10T04:31:12.266Z,8.89
2023-04-10T04:33:40.267Z,8.87
2023-04-10T04:36:02.301Z,8.85
2023-04-10T04:38:24.762Z,8.86
2023-04-10T04:40:57.848Z,8.84
2023-04-10T04:43:20.270Z,8.85
2023-04-10T04:45:41.671Z,8.85
2023-04-10T04:48:06.470Z,8.83
2023-04-10T04:50:30.258Z,8.79
2023-04-10T04:52:54.364Z,8.77
2023-04-10T04:55:10.687Z,8.78
2023-04-10T04:57:32.833Z,8.78
2023-04-10T04:59:55.684Z,8.80
2023-04-10T05:02:19.055Z,8.80
2023-04-10T05:04:43.894Z,8.83
2023-04-10T05:07:02.986Z,8.81
2023-04-10T05:09:20.444Z,8.82
2023-04-10T05:11:48.249Z,8.83
2023-04-10T05:14:10.388Z,8.84
2023-04-10T05:16:36.971Z,8.84
2023-04-10T05:19:09.876Z,8.85
2023-04-10T05:21:28.492Z,8.86
2023-04-10T05:23:43.881Z,8.83
2023-04-10T05:26:19.913Z,8.79
2023-04-10T05:28:42.054Z,8.79
2023-04-10T05:31:01.763Z,8.77
2023-04-10T05:33:26.221Z,8.75
2023-04-10T05:35:59.905Z,8.74
2023-04-10T05:38:13.486Z,8.75
2023-04-10T05:40:31.597Z,8.77
2023-04-10T05:42:53.865Z,8.75
2023-04-10T05:45:16.656Z,8.76
2023-04-10T05:47:38.951Z,8.79
2023-04-10T05:50:06.482Z,8.77
2023-04-10T05:52:28.758Z,8.76
2023-04-10T05:54:55.357Z,8.78
2023-04-10T05:57:19.282Z,8.76
2023-04-10T05:59:43.454Z,8.76
2023-04-10T06:02:09.915Z,8.79
2023-04-10T06:04:14.787Z,8.84
2023-04-10T06:06:20.851Z,8.88
2023-04-10T06:08:25.136Z,8.97
2023-04-10T06:10:31.104Z,9.05
2023-04-10T06:12:36.464Z,9.13
2023-04-10T06:14:42.007Z,9.19
2023-04-10T06:16:46.266Z,9.21
2023-04-10T06:18:53.105Z,9.28
2023-04-10T06:20:58.350Z,9.38
2023-04-10T06:23:02.227Z,9.45
2023-04-10T06:25:08.147Z,9.56
2023-04-10T06:27:12.761Z,9.77
2023-04-10T06:29:18.482Z,10.15
2023-04-10T06:31:23.675Z,10.49
2023-04-10T06:33:27.670Z,10.55
2023-04-10T06:35:31.615Z,10.49
2023-04-10T06:37:35.902Z,10.42
2023-04-10T06:39:41.632Z,10.31
2023-04-10T06:41:46.140Z,10.18
2023-04-10T06:44:02.587Z,10.08
2023-04-10T06:46:11.148Z,9.90
2023-04-10T06:48:15.352Z,9.81
2023-04-10T06:50:19.140Z,9.71
2023-04-10T06:52:22.841Z,9.62
2023-04-10T06:54:26.485Z,9.54
2023-04-10T06:56:30.008Z,9.48
2023-04-10T06:58:33.642Z,9.40
2023-04-10T07:00:37.174Z,9.35
2023-04-10T07:02:42.096Z,9.30
2023-04-10T07:04:45.843Z,9.23
2023-04-10T07:06:49.725Z,9.14
2023-04-10T07:08:53.768Z,9.05
2023-04-10T07:10:58.813Z,9.00
2023-04-10T07:13:03.426Z,8.97
2023-04-10T07:15:09.258Z,8.91
2023-04-10T07:17:13.764Z,8.89
2023-04-10T07:19:19.502Z,8.87
2023-04-10T07:21:23.436Z,8.84
2023-04-10T07:23:27.648Z,8.81
2023-04-10T07:25:31.792Z,8.71
2023-04-10T07:27:35.504Z,8.57
2023-04-10T07:29:39.170Z,8.42
2023-04-10T07:31:43.717Z,8.30
2023-04-10T07:33:48.755Z,8.20
2023-04-10T07:35:54.173Z,8.07
2023-04-10T07:37:58.775Z,7.98
2023-04-10T07:40:03.059Z,7.89
2023-04-10T07:42:07.634Z,7.83
2023-04-10T07:44:13.467Z,7.77
2023-04-10T07:46:18.199Z,7.72
2023-04-10T07:48:22.415Z,7.65
2023-04-10T07:50:26.794Z,7.58
2023-04-10T07:52:32.611Z,7.52
2023-04-10T07:54:37.898Z,7.49
2023-04-10T07:56:43.023Z,7.46
2023-04-10T07:58:47.107Z,7.44
2023-04-10T08:00:54.499Z,7.41
2023-04-10T08:02:58.790Z,7.38
2023-04-10T08:05:04.131Z,7.38
2023-04-10T08:07:08.542Z,7.38
2023-04-10T08:09:14.085Z,7.38
2023-04-10T08:11:26.368Z,7.37
2023-04-10T08:13:30.632Z,7.36
2023-04-10T08:15:35.079Z,7.33
2023-04-10T08:17:39.036Z,7.32
2023-04-10T08:19:43.674Z,7.33
2023-04-10T08:21:47.933Z,7.32
2023-04-10T08:23:52.528Z,7.35
2023-04-10T08:25:58.459Z,7.37
2023-04-10T08:28:02.578Z,7.40
2023-04-10T08:30:07.596Z,7.41
2023-04-10T08:32:11.448Z,7.44
2023-04-10T08:34:15.318Z,7.48
2023-04-10T08:36:20.342Z,7.52
2023-04-10T08:38:25.412Z,7.53
2023-04-10T08:40:29.532Z,7.56
2023-04-10T08:42:35.855Z,7.56
2023-04-10T08:44:40.126Z,7.58
2023-04-10T08:46:45.778Z,7.59
2023-04-10T08:48:55.351Z,7.63
2023-04-10T08:51:06.084Z,7.68
2023-04-10T08:53:12.891Z,7.73
2023-04-10T08:55:17.646Z,7.78
2023-04-10T08:57:23.206Z,7.86
2023-04-10T08:59:30.401Z,7.93
2023-04-10T09:01:35.189Z,8.01
2023-04-10T09:03:39.808Z,8.08
2023-04-10T09:05:43.958Z,8.17
2023-04-10T09:07:47.903Z,8.27
2023-04-10T09:09:51.682Z,8.41
2023-04-10T09:12:01.312Z,8.63
2023-04-10T09:14:05.500Z,8.95
2023-04-10T09:16:12.061Z,9.25
2023-04-10T09:18:16.000Z,9.49
2023-04-10T09:20:23.235Z,9.73
2023-04-10T09:22:33.738Z,9.93
2023-04-10T09:24:39.140Z,10.21
2023-04-10T09:26:43.905Z,10.44
2023-04-10T09:28:59.256Z,10.57
2023-04-10T09:31:03.172Z,10.63
2023-04-10T09:33:24.060Z,10.56
2023-04-10T09:35:38.380Z,10.53
2023-04-10T09:37:44.081Z,10.48
2023-04-10T09:39:48.691Z,10.48
2023-04-10T09:41:55.254Z,10.71
2023-04-10T09:44:09.029Z,10.95
2023-04-10T09:46:13.308Z,11.07
2023-04-10T09:48:17.717Z,11.18
2023-04-10T09:50:39.550Z,11.43
2023-04-10T09:52:46.217Z,11.76
2023-04-10T09:54:50.689Z,12.04
2023-04-10T09:56:55.892Z,12.19
2023-04-10T09:59:02.164Z,12.25
2023-04-10T10:01:07.211Z,12.22
2023-04-10T10:03:14.597Z,12.09
2023-04-10T10:05:19.012Z,12.16
2023-04-10T10:07:25.304Z,12.34
2023-04-10T10:09:30.431Z,12.28
2023-04-10T10:11:37.265Z,12.09
2023-04-10T10:13:49.809Z,11.82
2023-04-10T10:16:00.266Z,11.61
2023-04-10T10:18:09.599Z,11.41
2023-04-10T10:20:17.868Z,11.24
2023-04-10T10:22:24.971Z,11.16
2023-04-10T10:24:30.585Z,11.18
2023-04-10T10:26:36.947Z,11.22
2023-04-10T10:28:43.281Z,11.30
2023-04-10T10:30:48.975Z,11.37
2023-04-10T10:32:53.820Z,11.52
2023-04-10T10:34:59.034Z,11.74
2023-04-10T10:37:04.255Z,11.95
2023-04-10T10:39:26.550Z,12.07
2023-04-10T10:41:38.703Z,12.20
2023-04-10T10:43:52.578Z,12.10
2023-04-10T10:46:02.546Z,12.01
2023-04-10T10:48:07.332Z,11.99
2023-04-10T10:50:11.119Z,11.97
2023-04-10T10:52:15.477Z,11.97
2023-04-10T10:54:34.939Z,11.89
2023-04-10T10:56:39.221Z,11.88
2023-04-10T10:58:50.603Z,11.87
2023-04-10T11:01:10.625Z,11.90
2023-04-10T11:03:30.020Z,11.90
2023-04-10T11:05:56.559Z,11.81
2023-04-10T11:08:10.709Z,11.65
2023-04-10T11:10:16.634Z,11.57
2023-04-10T11:12:23.485Z,11.57
2023-04-10T11:14:28.748Z,11.60
2023-04-10T11:16:47.345Z,11.56
2023-04-10T11:19:13.915Z,11.59
2023-04-10T11:21:19.379Z,11.61
2023-04-10T11:23:24.381Z,11.57
2023-04-10T11:25:49.622Z,11.50
2023-04-10T11:27:54.697Z,11.52
2023-04-10T11:29:58.808Z,11.77
2023-04-10T11:32:04.374Z,12.05
2023-04-10T11:34:10.746Z,12.37
2023-04-10T11:36:17.787Z,12.48
2023-04-10T11:38:21.806Z,12.42
2023-04-10T11:40:25.953Z,12.22
2023-04-10T11:42:31.758Z,11.78
2023-04-10T11:44:36.796Z,11.12
2023-04-10T11:46:41.004Z,10.65
2023-04-10T11:48:45.278Z,10.12
2023-04-10T11:50:49.624Z,9.72
2023-04-10T11:52:57.232Z,9.41
2023-04-10T11:55:01.555Z,9.13
2023-04-10T11:57:07.412Z,8.97
2023-04-10T11:59:14.925Z,8.82
2023-04-10T12:01:23.569Z,8.69
2023-04-10T12:03:39.195Z,8.56
2023-04-10T12:05:49.005Z,8.51
2023-04-10T12:07:53.799Z,8.51
2023-04-10T12:09:59.445Z,8.49
2023-04-10T12:12:05.172Z,8.45
2023-04-10T12:14:09.407Z,8.38
2023-04-10T12:16:15.951Z,8.33
2023-04-10T12:18:20.427Z,8.32
2023-04-10T12:20:27.980Z,8.32
2023-04-10T12:22:32.491Z,8.39
2023-04-10T12:24:46.055Z,8.48
2023-04-10T12:26:51.430Z,8.51
2023-04-10T12:28:57.903Z,8.55
2023-04-10T12:31:04.087Z,8.61
2023-04-10T12:33:10.077Z,8.74
2023-04-10T12:35:14.551Z,8.93
2023-04-10T12:37:19.006Z,9.09
2023-04-10T12:39:27.337Z,9.32
2023-04-10T12:41:33.665Z,9.51
2023-04-10T12:43:39.540Z,9.68
2023-04-10T12:45:44.053Z,9.85
2023-04-10T12:47:52.151Z,10.02
2023-04-10T12:50:08.582Z,10.19
2023-04-10T12:52:13.434Z,10.32
2023-04-10T12:54:31.777Z,10.38
2023-04-10T12:56:44.165Z,10.37
2023-04-10T12:58:48.448Z,10.44
2023-04-10T13:00:53.084Z,10.47
2023-04-10T13:02:57.831Z,10.53
2023-04-10T13:05:02.340Z,10.53
2023-04-10T13:07:08.481Z,10.48
2023-04-10T13:09:13.464Z,10.48
2023-04-10T13:11:17.178Z,10.45
2023-04-10T13:13:22.044Z,10.47
2023-04-10T13:15:26.281Z,10.47
2023-04-10T13:17:30.611Z,10.50
2023-04-10T13:19:34.865Z,10.57
2023-04-10T13:21:38.931Z,10.65
2023-04-10T13:23:44.567Z,10.68
2023-04-10T13:25:49.429Z,10.77
2023-04-10T13:27:53.585Z,10.81
2023-04-10T13:29:57.776Z,10.82
2023-04-10T13:32:02.025Z,10.89
2023-04-10T13:34:06.566Z,10.92
2023-04-10T13:36:11.162Z,10.89
2023-04-10T13:38:16.087Z,10.88
2023-04-10T13:40:22.028Z,10.76
2023-04-10T13:42:26.413Z,10.69
2023-04-10T13:44:30.345Z,10.62
2023-04-10T13:46:33.967Z,10.68
2023-04-10T13:48:41.439Z,10.68
2023-04-10T13:50:45.130Z,10.70
2023-04-10T13:52:48.790Z,10.56
2023-04-10T13:54:52.627Z,10.45
2023-04-10T13:56:57.905Z,10.40
2023-04-10T13:59:01.631Z,10.38
2023-04-10T14:01:06.967Z,10.38
2023-04-10T14:03:12.590Z,10.37
2023-04-10T14:05:16.980Z,10.39
2023-04-10T14:07:21.062Z,10.33
2023-04-10T14:09:24.863Z,10.20
2023-04-10T14:11:28.574Z,10.02
2023-04-10T14:13:33.979Z,9.79
2023-04-10T14:15:37.981Z,9.63
2023-04-10T14:17:41.874Z,9.44
2023-04-10T14:19:46.715Z,9.23
2023-04-10T14:21:50.553Z,9.04
2023-04-10T14:23:54.573Z,8.90
2023-04-10T14:25:59.404Z,8.78
2023-04-10T14:28:03.263Z,8.78
2023-04-10T14:30:10.508Z,8.94
2023-04-10T14:32:14.900Z,9.09
2023-04-10T14:34:19.172Z,9.26
2023-04-10T14:36:23.082Z,9.36
2023-04-10T14:38:26.914Z,9.42
2023-04-10T14:40:30.995Z,9.52
2023-04-10T14:42:35.619Z,9.57
2023-04-10T14:44:40.092Z,9.60
2023-04-10T14:46:46.184Z,9.64
2023-04-10T14:48:50.359Z,9.70
2023-04-10T14:50:55.129Z,9.75
2023-04-10T14:53:00.548Z,9.80
2023-04-10T14:55:04.611Z,9.89
2023-04-10T14:57:08.756Z,9.96
2023-04-10T14:59:13.218Z,9.96
2023-04-10T15:01:19.125Z,9.90
2023-04-10T15:03:25.430Z,9.81
2023-04-10T15:05:30.070Z,9.72
2023-04-10T15:07:33.793Z,9.64
2023-04-10T15:09:37.620Z,9.54
2023-04-10T15:11:41.324Z,9.43
2023-04-10T15:13:44.914Z,9.41
2023-04-10T15:15:49.337Z,9.40
2023-04-10T15:17:53.626Z,9.42
2023-04-10T15:19:59.023Z,9.43
2023-04-10T15:22:02.790Z,9.44
2023-04-10T15:24:07.012Z,9.46
2023-04-10T15:26:14.726Z,9.52
2023-04-10T15:28:18.599Z,9.63
2023-04-10T15:30:22.428Z,9.73
2023-04-10T15:32:26.339Z,9.80
2023-04-10T15:34:30.229Z,9.82
2023-04-10T15:36:35.472Z,9.80
2023-04-10T15:38:39.528Z,9.74
2023-04-10T15:40:43.282Z,9.69
2023-04-10T15:42:47.039Z,9.70
2023-04-10T15:44:50.829Z,9.68
2023-04-10T15:46:55.864Z,9.67
2023-04-10T15:48:59.381Z,9.68
2023-04-10T15:51:06.295Z,9.70
2023-04-10T15:53:11.930Z,9.78
2023-04-10T15:55:16.757Z,9.79
2023-04-10T15:57:20.312Z,9.76
2023-04-10T15:59:25.477Z,9.76
2023-04-10T16:01:29.196Z,9.74
2023-04-10T16:03:33.724Z,9.72
2023-04-10T16:05:38.603Z,9.65
2023-04-10T16:07:44.081Z,9.49
2023-04-10T16:09:49.759Z,9.32
2023-04-10T16:11:53.842Z,9.20
2023-04-10T16:13:58.082Z,9.13
2023-04-10T16:16:02.947Z,9.09
2023-04-10T16:18:08.162Z,9.08
2023-04-10T16:20:12.310Z,9.05
2023-04-10T16:22:16.178Z,9.02
2023-04-10T16:24:20.447Z,9.03
2023-04-10T16:26:26.222Z,9.08
2023-04-10T16:28:30.076Z,9.08
2023-04-10T16:30:34.253Z,9.05
2023-04-10T16:32:38.317Z,9.00
2023-04-10T16:34:42.577Z,8.97
2023-04-10T16:36:46.706Z,8.91
2023-04-10T16:38:50.867Z,8.88
2023-04-10T16:40:54.738Z,8.82
2023-04-10T16:43:02.246Z,8.73
2023-04-10T16:45:08.799Z,8.53
2023-04-10T16:47:12.842Z,8.17
2023-04-10T16:49:18.075Z,7.82
2023-04-10T16:51:22.671Z,7.52
2023-04-10T16:53:27.891Z,7.33
2023-04-10T16:55:33.045Z,7.21
2023-04-10T16:57:37.378Z,7.19
2023-04-10T16:59:44.017Z,7.23
2023-04-10T17:01:48.425Z,7.23
2023-04-10T17:03:53.952Z,7.28
2023-04-10T17:05:58.627Z,7.33
2023-04-10T17:08:02.705Z,7.38
2023-04-10T17:10:08.183Z,7.43
2023-04-10T17:12:12.727Z,7.43
2023-04-10T17:14:16.499Z,7.45
2023-04-10T17:16:21.685Z,7.49
2023-04-10T17:18:25.522Z,7.51
2023-04-10T17:20:31.407Z,7.54
2023-04-10T17:22:35.292Z,7.58
2023-04-10T17:24:39.069Z,7.59
2023-04-10T17:26:43.340Z,7.61
2023-04-10T17:28:47.618Z,7.59
2023-04-10T17:30:51.977Z,7.59
2023-04-10T17:32:57.401Z,7.58
2023-04-10T17:35:01.261Z,7.55
2023-04-10T17:37:05.379Z,7.56
2023-04-10T17:39:09.220Z,7.60
2023-04-10T17:41:16.419Z,7.65
2023-04-10T17:43:20.279Z,7.73
2023-04-10T17:45:24.097Z,7.78
2023-04-10T17:47:28.126Z,7.85
2023-04-10T17:49:34.201Z,7.88
2023-04-10T17:51:39.260Z,7.93
2023-04-10T17:53:48.454Z,7.99
2023-04-10T17:55:52.547Z,7.98
2023-04-10T17:57:58.367Z,7.97
2023-04-10T18:00:02.508Z,7.92
2023-04-10T18:02:08.953Z,7.88
2023-04-10T18:04:13.640Z,7.83
2023-04-10T18:06:19.636Z,7.79
2023-04-10T18:08:23.855Z,7.77
2023-04-10T18:10:28.690Z,7.73
2023-04-10T18:12:33.084Z,7.71
2023-04-10T18:14:37.792Z,7.67
2023-04-10T18:16:42.543Z,7.58
2023-04-10T18:18:47.071Z,7.50
2023-04-10T18:20:52.575Z,7.45
2023-04-10T18:22:59.046Z,7.48
2023-04-10T18:25:04.811Z,7.53
2023-04-10T18:27:09.149Z,7.59
2023-04-10T18:29:14.383Z,7.62
2023-04-10T18:31:20.058Z,7.68
2023-04-10T18:33:25.522Z,7.72
2023-04-10T18:35:32.967Z,7.72
2023-04-10T18:37:38.184Z,7.71
2023-04-10T18:39:43.721Z,7.67
2023-04-10T18:41:48.411Z,7.62
2023-04-10T18:44:03.589Z,7.59
2023-04-10T18:46:09.331Z,7.53
2023-04-10T18:48:13.275Z,7.52
2023-04-10T18:50:17.953Z,7.49
2023-04-10T18:52:21.795Z,7.46
2023-04-10T18:54:27.643Z,7.44
2023-04-10T18:56:33.069Z,7.43
2023-04-10T18:58:37.212Z,7.44
2023-04-10T19:00:40.840Z,7.47
2023-04-10T19:02:44.904Z,7.45
2023-04-10T19:04:48.889Z,7.30
2023-04-10T19:06:53.058Z,6.92
2023-04-10T19:08:57.199Z,6.57
2023-04-10T19:11:01.232Z,6.33
2023-04-10T19:13:07.742Z,6.14
2023-04-10T19:15:13.980Z,6.01
2023-04-10T19:17:18.161Z,5.92
2023-04-10T19:19:21.895Z,5.84
2023-04-10T19:21:27.805Z,5.81
2023-04-10T19:23:32.788Z,5.76
2023-04-10T19:25:36.480Z,5.76
2023-04-10T19:27:40.630Z,5.75
2023-04-10T19:29:46.355Z,5.75
2023-04-10T19:31:50.206Z,5.78
2023-04-10T19:33:54.692Z,5.80
2023-04-10T19:35:59.438Z,5.84
2023-04-10T19:38:03.434Z,5.89
2023-04-10T19:40:08.310Z,5.95
2023-04-10T19:42:13.734Z,6.00
2023-04-10T19:44:20.674Z,6.04
2023-04-10T19:46:25.910Z,6.12
2023-04-10T19:48:29.930Z,6.17
2023-04-10T19:50:34.170Z,6.22
2023-04-10T19:52:38.300Z,6.26
2023-04-10T19:54:42.565Z,6.31
2023-04-10T19:56:46.936Z,6.36
2023-04-10T19:58:51.539Z,6.40
2023-04-10T20:00:56.727Z,6.47
2023-04-10T20:03:02.719Z,6.41
2023-04-10T20:05:08.165Z,6.34
2023-04-10T20:07:12.407Z,6.22
2023-04-10T20:09:18.008Z,6.10
2023-04-10T20:11:22.458Z,6.00
2023-04-10T20:13:27.726Z,5.93
2023-04-10T20:15:33.057Z,5.88
2023-04-10T20:17:38.798Z,5.83
2023-04-10T20:19:46.060Z,5.80
2023-04-10T20:21:50.842Z,5.76
2023-04-10T20:23:57.961Z,5.75
2023-04-10T20:26:02.293Z,5.74
2023-04-10T20:28:06.805Z,5.75
2023-04-10T20:30:13.350Z,5.75
2023-04-10T20:32:17.407Z,5.79
2023-04-10T20:34:21.694Z,5.81
2023-04-10T20:36:26.606Z,5.84
2023-04-10T20:38:30.474Z,5.86
2023-04-10T20:40:34.280Z,5.89
2023-04-10T20:42:37.887Z,5.92
2023-04-10T20:44:41.837Z,5.96
2023-04-10T20:46:45.675Z,5.99
2023-04-10T20:48:50.391Z,6.03
2023-04-10T20:50:54.312Z,6.05
2023-04-10T20:52:59.612Z,6.09
2023-04-10T20:55:04.095Z,6.15
2023-04-10T20:57:07.968Z,6.19
2023-04-10T20:59:11.776Z,6.25
2023-04-10T21:01:15.743Z,6.30
2023-04-10T21:03:20.083Z,6.32
2023-04-10T21:05:24.468Z,6.33
2023-04-10T21:07:29.600Z,6.32
2023-04-10T21:09:34.905Z,6.29
2023-04-10T21:11:38.671Z,6.23
2023-04-10T21:13:42.532Z,6.15
2023-04-10T21:15:46.363Z,6.09
2023-04-10T21:17:50.554Z,6.03
2023-04-10T21:19:54.619Z,5.97
2023-04-10T21:21:58.824Z,5.92
2023-04-10T21:24:02.528Z,5.89
2023-04-10T21:26:08.651Z,5.84
2023-04-10T21:28:12.444Z,5.82
2023-04-10T21:30:16.419Z,5.80
2023-04-10T21:32:20.647Z,5.76
2023-04-10T21:34:25.533Z,5.75
2023-04-10T21:36:29.505Z,5.74
2023-04-10T21:38:33.994Z,5.75
2023-04-10T21:40:37.942Z,5.73
2023-04-10T21:42:43.231Z,5.72
2023-04-10T21:44:47.009Z,5.72
2023-04-10T21:46:50.837Z,5.71
2023-04-10T21:48:54.994Z,5.71
2023-04-10T21:50:59.063Z,5.70
2023-04-10T21:53:02.913Z,5.69
2023-04-10T21:55:09.458Z,5.68
2023-04-10T21:57:13.353Z,5.68
2023-04-10T21:59:18.471Z,5.68
2023-04-10T22:01:21.716Z,5.69
2023-04-10T22:03:27.473Z,5.70
2023-04-10T22:05:31.951Z,5.70
2023-04-10T22:07:35.839Z,5.70
2023-04-10T22:09:39.437Z,5.69
2023-04-10T22:11:43.357Z,5.68
2023-04-10T22:13:47.100Z,5.67
2023-04-10T22:15:52.424Z,5.68
2023-04-10T22:17:56.294Z,5.67
2023-04-10T22:19:59.846Z,5.68
2023-04-10T22:22:03.381Z,5.68
2023-04-10T22:24:07.551Z,5.68
2023-04-10T22:26:11.358Z,5.69
2023-04-10T22:28:15.140Z,5.69
2023-04-10T22:30:19.235Z,5.70
2023-04-10T22:32:24.342Z,5.71
2023-04-10T22:34:27.833Z,5.71
2023-04-10T22:36:34.079Z,5.72
2023-04-10T22:38:37.806Z,5.71
2023-04-10T22:40:41.541Z,5.71
2023-04-10T22:42:45.749Z,5.70
2023-04-10T22:44:49.904Z,5.70
2023-04-10T22:46:53.623Z,5.69
2023-04-10T22:48:58.765Z,5.69
2023-04-10T22:51:02.164Z,5.68
2023-04-10T22:53:05.987Z,5.67
2023-04-10T22:55:10.517Z,5.68
2023-04-10T22:57:14.196Z,5.67
2023-04-10T22:59:18.691Z,5.68
2023-04-10T23:01:22.567Z,5.71
2023-04-10T23:03:26.242Z,5.72
2023-04-10T23:05:33.196Z,5.74
2023-04-10T23:07:36.845Z,5.74
2023-04-10T23:09:40.645Z,5.73
2023-04-10T23:11:46.228Z,5.72
2023-04-10T23:13:50.295Z,5.71
2023-04-10T23:15:55.550Z,5.71
2023-04-10T23:17:59.194Z,5.70
2023-04-10T23:20:02.908Z,5.68
2023-04-10T23:22:08.154Z,5.68
2023-04-10T23:24:11.833Z,5.67
2023-04-10T23:26:15.542Z,5.66
2023-04-10T23:28:19.314Z,5.66
2023-04-10T23:30:23.193Z,5.65
2023-04-10T23:32:26.900Z,5.63
2023-04-10T23:34:30.633Z,5.62
2023-04-10T23:36:34.370Z,5.59
2023-04-10T23:38:39.485Z,5.56
2023-04-10T23:40:43.215Z,5.54
2023-04-10T23:42:47.356Z,5.54
2023-04-10T23:44:50.871Z,5.54
2023-04-10T23:46:54.686Z,5.52
2023-04-10T23:48:58.335Z,5.51
2023-04-10T23:51:06.530Z,5.50
2023-04-10T23:53:10.896Z,5.49
2023-04-10T23:55:17.339Z,5.48
2023-04-10T23:57:20.941Z,5.47
2023-04-10T23:59:24.617Z,5.46
